Flight Track Log - Related Links

Times and Time Zones

All times are in EDT time to prevent confusion due to time zone crossing. See the N762NC flight status page for this flight to view local times or setup timezone preferences in your user account.

Time Position Orientation Groundspeed Altitude Reporting Facility
EDT Latitude Longitude Course Direction KTS MPH feet Rate Location/Type
Thu 10:30:51 AM 33.6500 -84.3833 North 159 183 2,100  Level Atlanta TRACON
Thu 10:31:45 AM 33.6667 -84.3167 73° East 252 290 3,700 2,100 Climbing Atlanta TRACON
Thu 10:32:51 AM 33.7167 -84.2500 48° Northeast 272 313 6,300 2,286 Climbing Atlanta TRACON
Thu 10:33:00 AM 33.8850 -84.3662 12° North  Level FlightAware
Thu 10:33:51 AM 33.7833 -84.2333 12° North 277 319 8,500  Level Atlanta TRACON
Thu 10:34:00 AM 33.9685 -84.3504 North  Level Estimated
Thu 10:34:51 AM 33.8667 -84.2833 334° Northwest 285 328 10,700  Level Atlanta TRACON
Thu 10:35:00 AM 34.0517 -84.3323 10° North  Level FlightAware
Thu 10:36:00 AM 34.1352 -84.3166 North  Level Estimated
Thu 10:36:53 AM 34.0236 -84.3169 350° North 339 390 13,300  Level Atlanta Center
Thu 10:37:53 AM 34.1278 -84.3275 355° North 356 410 14,000 1,650 Climbing Atlanta Center
Thu 10:38:53 AM 34.2364 -84.3453 352° North 381 438 16,600 2,050 Climbing Atlanta Center
Thu 10:39:53 AM 34.3386 -84.3406 North 375 432 18,100 1,400 Climbing Atlanta Center
Thu 10:40:53 AM 34.4453 -84.3108 13° North 376 433 19,400 1,300 Climbing Atlanta Center
Thu 10:41:53 AM 34.5558 -84.2733 16° North 394 453 20,700 1,500 Climbing Atlanta Center
Thu 10:42:53 AM 34.6769 -84.2433 12° North 399 459 22,400 1,150 Climbing Atlanta Center
Thu 10:43:53 AM 34.7897 -84.2108 13° North 399 459 23,000 -450 Climbing Atlanta Center
Thu 10:44:53 AM 34.8878 -84.1831 13° North 406 467 21,500 -2,150 Descending Atlanta Center
Thu 10:45:53 AM 34.9942 -84.1581 11° North 395 455 18,700 -2,900 Descending Atlanta Center
Thu 10:46:53 AM 35.1028 -84.1303 12° North 390 449 15,700 -2,750 Descending Atlanta Center
Thu 10:47:53 AM 35.2050 -84.1047 12° North 384 442 13,200 -2,100 Descending Atlanta Center
Thu 10:48:53 AM 35.3011 -84.0794 12° North 369 425 11,500 -1,150 Descending Atlanta Center
Thu 10:49:53 AM 35.3928 -84.0542 13° North 351 404 10,900 -750 Descending Atlanta Center
Thu 10:50:53 AM 35.4825 -84.0286 13° North 332 382 10,000 -450 Descending Atlanta Center
Thu 10:51:53 AM 35.5661 -84.0031 14° North 321 369 10,000 -550 Level Atlanta Center
Thu 10:52:53 AM 35.6431 -83.9800 14° North 297 342 8,900 -1,350 Descending Atlanta Center
Thu 10:53:53 AM 35.7183 -83.9594 12° North 278 320 7,300 -1,050 Descending Atlanta Center
Thu 10:54:53 AM 35.7744 -83.9056 38° Northeast 263 303 6,800 -900 Descending Atlanta Center
Thu 10:55:53 AM 35.8183 -83.8442 49° Northeast 246 283 5,500 -1,200 Descending Atlanta Center
Thu 10:56:53 AM 35.8639 -83.7850 46° Northeast 236 272 4,400 -1,100 Descending Atlanta Center
Thu 10:58:00 AM 35.8269 -83.9000 248° West  Level FlightAware

Login

Don't have an account? Register now (free) for customized features, flight alerts, and more!